Flight Track Log - Related Links

Times and Time Zones

All times are in EDT time to prevent confusion due to time zone crossing. See the N44655 flight status page for this flight to view local times or setup timezone preferences in your user account.

Time Position Orientation Groundspeed Altitude Reporting Facility
EDT Latitude Longitude Course Direction KTS MPH feet Rate Location/Type
Mon 05:00:43 PM 43.1167 -78.8333 97° East 97 112 2,000  Level Buffalo TRACON
Mon 05:01:15 PM 43.1081 -78.8153 123° Southeast 93 107 1,900 -64 Descending Cleveland Center
Mon 05:02:17 PM 43.1067 -78.7819 93° East 93 107 1,900  Level Cleveland Center
Mon 05:04:55 PM 43.1000 -78.6833 95° East 87 100 1,900 28 Level Buffalo TRACON
Mon 05:05:55 PM 43.1000 -78.6500 90° East 91 105 2,000  Climbing Buffalo TRACON
Mon 05:06:00 PM 43.0788 -78.6450 97° East  Level Estimated
Mon 05:06:26 PM 43.0956 -78.6439 135° Southeast 87 100 1,900  Level Cleveland Center
Mon 05:07:28 PM 43.0933 -78.6081 95° East 88 101 2,000 48 Climbing Cleveland Center
Mon 05:08:30 PM 43.0922 -78.5719 92° East 90 104 2,000 -97 Level Cleveland Center
Mon 05:09:32 PM 43.0900 -78.5356 95° East 92 106 1,800 -145 Descending Cleveland Center
Mon 05:10:34 PM 43.0872 -78.5003 96° East 92 106 1,700 -48 Descending Cleveland Center
Mon 05:11:36 PM 43.0794 -78.4619 106° East 92 106 1,700 48 Level Cleveland Center
Mon 05:12:38 PM 43.0750 -78.4278 100° East 92 106 1,800 143 Climbing Cleveland Center
Mon 05:13:00 PM 43.0750 -78.4150 90° East 90 104 1,900  Climbing Cleveland Center
Mon 05:13:18 PM 43.0736 -78.4089 107° East 90 104 1,800 -146 Descending Cleveland Center
Mon 05:13:41 PM 43.0719 -78.3925 98° East 92 106 1,800 -100 Level Cleveland Center
Mon 05:14:18 PM 43.0706 -78.3733 96° East 94 108 1,700 -97 Descending Cleveland Center
Mon 05:14:43 PM 43.0686 -78.3569 99° East 92 106 1,700 218 Level Cleveland Center
Mon 05:15:13 PM 43.0678 -78.3347 93° East 96 110 1,900 194 Climbing Cleveland Center
Mon 05:15:45 PM 43.0658 -78.3206 101° East 92 106 1,900  Level Cleveland Center
Mon 05:16:14 PM 43.0642 -78.3019 97° East 94 108 1,900  Level Cleveland Center
Mon 05:16:47 PM 43.0642 -78.2797 90° East 92 106 1,900  Level Cleveland Center
Mon 05:17:14 PM 43.0494 -78.2717 158° South 101 116 1,900  Level Cleveland Center
Mon 05:17:49 PM 43.0358 -78.2617 152° Southeast 103 119 1,900 -295 Level Cleveland Center
Mon 05:18:15 PM 43.0339 -78.2472 100° East 103 119 1,600 -484 Descending Cleveland Center
Mon 05:18:51 PM 43.0311 -78.2264 100° East 96 110 1,400 -295 Descending Cleveland Center
Mon 05:19:16 PM 43.0322 -78.2150 82° East 87 100 1,300 -290 Descending Cleveland Center
Mon 05:19:53 PM 43.0319 -78.1981 91° East 85 98 1,100 -300 Descending Cleveland Center
Mon 05:20:16 PM 43.0319 -78.1886 90° East 66 76 1,000 -194 Descending Cleveland Center
Mon 05:20:55 PM 43.0319 -78.1686 90° East 79 91 900 -154 Descending Cleveland Center
Mon 05:22:00 PM 43.0317 -78.1697 114° Southeast  Level Estimated

Login

Don't have an account? Register now (free) for customized features, flight alerts, and more!